sensor_id;sensor_type;location;lat;lon;timestamp;P1;durP1;ratioP1;P2;durP2;ratioP2
48651;SDS011;34442;52.362;-1.302;2023-01-31T00:00:48;5.30;;;1.02;;
48651;SDS011;34442;52.362;-1.302;2023-01-31T00:03:13;2.10;;;1.00;;
48651;SDS011;34442;52.362;-1.302;2023-01-31T00:05:38;1.48;;;0.80;;
48651;SDS011;34442;52.362;-1.302;2023-01-31T00:08:04;3.78;;;1.00;;
48651;SDS011;34442;52.362;-1.302;2023-01-31T00:10:29;1.95;;;0.93;;
48651;SDS011;34442;52.362;-1.302;2023-01-31T00:12:55;4.00;;;1.08;;
48651;SDS011;34442;52.362;-1.302;2023-01-31T00:15:21;2.22;;;0.90;;
48651;SDS011;34442;52.362;-1.302;2023-01-31T00:17:46;4.43;;;1.10;;
48651;SDS011;34442;52.362;-1.302;2023-01-31T00:20:12;4.75;;;1.52;;
48651;SDS011;34442;52.362;-1.302;2023-01-31T00:22:37;3.05;;;1.20;;
48651;SDS011;34442;52.362;-1.302;2023-01-31T00:25:03;2.38;;;1.02;;
48651;SDS011;34442;52.362;-1.302;2023-01-31T00:27:29;3.53;;;1.30;;
48651;SDS011;34442;52.362;-1.302;2023-01-31T00:29:55;4.53;;;1.42;;
48651;SDS011;34442;52.362;-1.302;2023-01-31T00:32:20;2.05;;;1.10;;
48651;SDS011;34442;52.362;-1.302;2023-01-31T00:34:46;3.28;;;1.15;;
48651;SDS011;34442;52.362;-1.302;2023-01-31T00:37:11;2.40;;;1.00;;
48651;SDS011;34442;52.362;-1.302;2023-01-31T00:39:37;1.90;;;1.00;;
48651;SDS011;34442;52.362;-1.302;2023-01-31T00:42:02;3.55;;;1.23;;
48651;SDS011;34442;52.362;-1.302;2023-01-31T00:44:28;2.67;;;1.00;;
48651;SDS011;34442;52.362;-1.302;2023-01-31T00:46:53;5.05;;;1.17;;
48651;SDS011;34442;52.362;-1.302;2023-01-31T00:49:18;3.22;;;1.30;;
48651;SDS011;34442;52.362;-1.302;2023-01-31T00:51:44;3.92;;;1.25;;
48651;SDS011;34442;52.362;-1.302;2023-01-31T00:54:09;7.13;;;1.70;;
48651;SDS011;34442;52.362;-1.302;2023-01-31T00:56:35;3.55;;;1.20;;
48651;SDS011;34442;52.362;-1.302;2023-01-31T00:59:02;1.75;;;1.10;;
48651;SDS011;34442;52.362;-1.302;2023-01-31T01:01:32;4.10;;;1.50;;
48651;SDS011;34442;52.362;-1.302;2023-01-31T01:03:59;2.15;;;0.90;;
48651;SDS011;34442;52.362;-1.302;2023-01-31T01:06:25;2.88;;;1.50;;
48651;SDS011;34442;52.362;-1.302;2023-01-31T01:08:52;2.83;;;1.30;;
48651;SDS011;34442;52.362;-1.302;2023-01-31T01:11:19;3.50;;;1.10;;
48651;SDS011;34442;52.362;-1.302;2023-01-31T01:13:46;2.55;;;1.10;;
48651;SDS011;34442;52.362;-1.302;2023-01-31T01:16:13;4.03;;;1.58;;
48651;SDS011;34442;52.362;-1.302;2023-01-31T01:18:41;1.80;;;1.02;;
48651;SDS011;34442;52.362;-1.302;2023-01-31T01:21:11;3.13;;;1.52;;
48651;SDS011;34442;52.362;-1.302;2023-01-31T01:23:39;4.10;;;1.23;;
48651;SDS011;34442;52.362;-1.302;2023-01-31T01:26:06;3.70;;;1.23;;
48651;SDS011;34442;52.362;-1.302;2023-01-31T01:28:38;3.25;;;1.25;;
48651;SDS011;34442;52.362;-1.302;2023-01-31T01:31:04;3.20;;;1.25;;
48651;SDS011;34442;52.362;-1.302;2023-01-31T01:33:31;3.63;;;1.10;;
48651;SDS011;34442;52.362;-1.302;2023-01-31T01:36:03;2.70;;;1.17;;
48651;SDS011;34442;52.362;-1.302;2023-01-31T01:38:30;1.75;;;1.13;;
48651;SDS011;34442;52.362;-1.302;2023-01-31T01:40:57;2.70;;;1.08;;
48651;SDS011;34442;52.362;-1.302;2023-01-31T01:46:11;2.78;;;1.10;;
48651;SDS011;34442;52.362;-1.302;2023-01-31T01:48:40;2.35;;;1.00;;
48651;SDS011;34442;52.362;-1.302;2023-01-31T01:51:08;2.75;;;0.90;;
48651;SDS011;34442;52.362;-1.302;2023-01-31T01:53:36;2.08;;;1.00;;
48651;SDS011;34442;52.362;-1.302;2023-01-31T01:56:07;3.22;;;1.08;;
48651;SDS011;34442;52.362;-1.302;2023-01-31T01:58:37;3.40;;;1.40;;
48651;SDS011;34442;52.362;-1.302;2023-01-31T02:01:07;4.80;;;1.35;;
48651;SDS011;34442;52.362;-1.302;2023-01-31T02:03:34;4.13;;;1.40;;
48651;SDS011;34442;52.362;-1.302;2023-01-31T02:06:03;4.13;;;1.17;;
48651;SDS011;34442;52.362;-1.302;2023-01-31T02:08:31;2.80;;;1.10;;
48651;SDS011;34442;52.362;-1.302;2023-01-31T02:11:03;3.75;;;1.48;;
48651;SDS011;34442;52.362;-1.302;2023-01-31T02:13:33;5.25;;;1.40;;
48651;SDS011;34442;52.362;-1.302;2023-01-31T02:16:00;6.15;;;1.45;;
48651;SDS011;34442;52.362;-1.302;2023-01-31T02:18:26;2.65;;;1.00;;
48651;SDS011;34442;52.362;-1.302;2023-01-31T02:26:38;1.92;;;1.10;;
48651;SDS011;34442;52.362;-1.302;2023-01-31T02:37:44;2.70;;;0.95;;
48651;SDS011;34442;52.362;-1.302;2023-01-31T02:42:58;3.13;;;1.23;;
48651;SDS011;34442;52.362;-1.302;2023-01-31T02:48:29;2.70;;;0.98;;
48651;SDS011;34442;52.362;-1.302;2023-01-31T02:51:11;3.78;;;1.33;;
48651;SDS011;34442;52.362;-1.302;2023-01-31T02:53:50;3.70;;;1.42;;
48651;SDS011;34442;52.362;-1.302;2023-01-31T02:56:22;4.30;;;1.23;;
48651;SDS011;34442;52.362;-1.302;2023-01-31T03:01:48;3.58;;;1.27;;
48651;SDS011;34442;52.362;-1.302;2023-01-31T03:04:20;3.58;;;1.45;;
48651;SDS011;34442;52.362;-1.302;2023-01-31T03:18:04;2.28;;;1.13;;
48651;SDS011;34442;52.362;-1.302;2023-01-31T03:22:45;2.10;;;1.02;;
48651;SDS011;34442;52.362;-1.302;2023-01-31T03:25:16;0.80;;;0.65;;
48651;SDS011;34442;52.362;-1.302;2023-01-31T03:27:46;3.38;;;1.00;;
48651;SDS011;34442;52.362;-1.302;2023-01-31T03:30:17;2.90;;;1.00;;
48651;SDS011;34442;52.362;-1.302;2023-01-31T03:32:48;2.28;;;0.90;;
48651;SDS011;34442;52.362;-1.302;2023-01-31T03:35:20;3.13;;;1.10;;
48651;SDS011;34442;52.362;-1.302;2023-01-31T03:38:03;1.10;;;0.80;;
48651;SDS011;34442;52.362;-1.302;2023-01-31T03:40:40;5.82;;;1.65;;
48651;SDS011;34442;52.362;-1.302;2023-01-31T03:46:13;3.33;;;0.93;;
48651;SDS011;34442;52.362;-1.302;2023-01-31T03:48:41;2.03;;;0.90;;
48651;SDS011;34442;52.362;-1.302;2023-01-31T03:51:11;1.52;;;0.82;;
48651;SDS011;34442;52.362;-1.302;2023-01-31T03:53:44;3.83;;;1.00;;
48651;SDS011;34442;52.362;-1.302;2023-01-31T03:58:56;2.67;;;1.00;;
48651;SDS011;34442;52.362;-1.302;2023-01-31T04:01:27;2.15;;;1.02;;
48651;SDS011;34442;52.362;-1.302;2023-01-31T04:07:01;1.27;;;1.13;;
48651;SDS011;34442;52.362;-1.302;2023-01-31T04:09:27;3.17;;;1.10;;
48651;SDS011;34442;52.362;-1.302;2023-01-31T04:11:53;3.95;;;1.23;;
48651;SDS011;34442;52.362;-1.302;2023-01-31T04:14:18;2.28;;;1.05;;
48651;SDS011;34442;52.362;-1.302;2023-01-31T04:16:44;1.92;;;0.90;;
48651;SDS011;34442;52.362;-1.302;2023-01-31T04:19:09;3.92;;;1.38;;
48651;SDS011;34442;52.362;-1.302;2023-01-31T04:21:35;3.33;;;1.25;;
48651;SDS011;34442;52.362;-1.302;2023-01-31T04:24:00;4.00;;;1.00;;
48651;SDS011;34442;52.362;-1.302;2023-01-31T04:26:26;1.98;;;1.02;;
48651;SDS011;34442;52.362;-1.302;2023-01-31T04:28:51;2.28;;;0.98;;
48651;SDS011;34442;52.362;-1.302;2023-01-31T04:31:17;2.05;;;0.82;;
48651;SDS011;34442;52.362;-1.302;2023-01-31T04:33:42;2.53;;;0.80;;
48651;SDS011;34442;52.362;-1.302;2023-01-31T04:36:07;1.35;;;0.85;;
48651;SDS011;34442;52.362;-1.302;2023-01-31T04:38:33;1.42;;;0.80;;
48651;SDS011;34442;52.362;-1.302;2023-01-31T04:40:59;1.70;;;0.88;;
48651;SDS011;34442;52.362;-1.302;2023-01-31T04:43:24;3.00;;;1.10;;
48651;SDS011;34442;52.362;-1.302;2023-01-31T04:45:49;1.88;;;1.05;;
48651;SDS011;34442;52.362;-1.302;2023-01-31T04:48:15;2.22;;;0.82;;
48651;SDS011;34442;52.362;-1.302;2023-01-31T04:50:41;2.22;;;1.25;;
48651;SDS011;34442;52.362;-1.302;2023-01-31T04:53:06;2.92;;;1.02;;
48651;SDS011;34442;52.362;-1.302;2023-01-31T04:55:33;2.88;;;1.00;;
48651;SDS011;34442;52.362;-1.302;2023-01-31T04:57:59;0.88;;;0.73;;
48651;SDS011;34442;52.362;-1.302;2023-01-31T05:00:25;2.10;;;0.93;;
48651;SDS011;34442;52.362;-1.302;2023-01-31T05:02:50;2.92;;;0.82;;
48651;SDS011;34442;52.362;-1.302;2023-01-31T05:05:17;2.00;;;1.15;;
48651;SDS011;34442;52.362;-1.302;2023-01-31T05:07:43;3.47;;;1.23;;
48651;SDS011;34442;52.362;-1.302;2023-01-31T05:10:09;1.75;;;0.80;;
48651;SDS011;34442;52.362;-1.302;2023-01-31T05:12:35;3.92;;;1.10;;
48651;SDS011;34442;52.362;-1.302;2023-01-31T05:15:00;2.75;;;1.10;;
48651;SDS011;34442;52.362;-1.302;2023-01-31T05:17:26;2.75;;;1.00;;
48651;SDS011;34442;52.362;-1.302;2023-01-31T05:19:57;1.77;;;0.90;;
48651;SDS011;34442;52.362;-1.302;2023-01-31T05:22:23;4.88;;;1.35;;
48651;SDS011;34442;52.362;-1.302;2023-01-31T05:24:49;1.45;;;0.80;;
48651;SDS011;34442;52.362;-1.302;2023-01-31T05:27:15;3.05;;;0.90;;
48651;SDS011;34442;52.362;-1.302;2023-01-31T05:29:41;2.65;;;1.17;;
48651;SDS011;34442;52.362;-1.302;2023-01-31T05:32:07;2.40;;;0.85;;
48651;SDS011;34442;52.362;-1.302;2023-01-31T05:34:33;1.33;;;0.70;;
48651;SDS011;34442;52.362;-1.302;2023-01-31T05:36:59;1.88;;;0.80;;
48651;SDS011;34442;52.362;-1.302;2023-01-31T05:39:25;1.25;;;0.80;;
48651;SDS011;34442;52.362;-1.302;2023-01-31T05:41:51;1.00;;;0.70;;
48651;SDS011;34442;52.362;-1.302;2023-01-31T05:44:17;1.17;;;0.70;;
48651;SDS011;34442;52.362;-1.302;2023-01-31T05:46:43;2.38;;;1.00;;
48651;SDS011;34442;52.362;-1.302;2023-01-31T05:49:09;2.83;;;1.00;;
48651;SDS011;34442;52.362;-1.302;2023-01-31T05:51:35;3.22;;;1.25;;
48651;SDS011;34442;52.362;-1.302;2023-01-31T05:54:00;2.45;;;0.73;;
48651;SDS011;34442;52.362;-1.302;2023-01-31T05:56:26;1.70;;;1.00;;
48651;SDS011;34442;52.362;-1.302;2023-01-31T05:58:51;1.38;;;0.88;;
48651;SDS011;34442;52.362;-1.302;2023-01-31T06:01:17;1.77;;;0.90;;
48651;SDS011;34442;52.362;-1.302;2023-01-31T06:03:44;2.00;;;0.90;;
48651;SDS011;34442;52.362;-1.302;2023-01-31T06:06:10;1.95;;;0.73;;
48651;SDS011;34442;52.362;-1.302;2023-01-31T06:08:36;2.42;;;0.95;;
48651;SDS011;34442;52.362;-1.302;2023-01-31T06:11:01;2.30;;;0.93;;
48651;SDS011;34442;52.362;-1.302;2023-01-31T06:13:29;1.42;;;0.80;;
48651;SDS011;34442;52.362;-1.302;2023-01-31T06:15:57;1.58;;;0.98;;
48651;SDS011;34442;52.362;-1.302;2023-01-31T06:18:23;3.58;;;1.15;;
48651;SDS011;34442;52.362;-1.302;2023-01-31T06:20:50;1.13;;;0.80;;
48651;SDS011;34442;52.362;-1.302;2023-01-31T06:23:16;1.77;;;0.80;;
48651;SDS011;34442;52.362;-1.302;2023-01-31T06:25:41;0.88;;;0.70;;
48651;SDS011;34442;52.362;-1.302;2023-01-31T06:28:07;2.25;;;0.85;;
48651;SDS011;34442;52.362;-1.302;2023-01-31T06:30:32;1.67;;;1.13;;
48651;SDS011;34442;52.362;-1.302;2023-01-31T06:32:58;2.50;;;0.80;;
48651;SDS011;34442;52.362;-1.302;2023-01-31T06:35:24;2.13;;;0.80;;
48651;SDS011;34442;52.362;-1.302;2023-01-31T06:37:50;3.67;;;0.90;;
48651;SDS011;34442;52.362;-1.302;2023-01-31T06:40:15;2.35;;;0.90;;
48651;SDS011;34442;52.362;-1.302;2023-01-31T06:42:41;2.38;;;0.90;;
48651;SDS011;34442;52.362;-1.302;2023-01-31T06:45:07;2.00;;;0.75;;
48651;SDS011;34442;52.362;-1.302;2023-01-31T06:47:32;2.28;;;1.00;;
48651;SDS011;34442;52.362;-1.302;2023-01-31T06:49:58;1.38;;;0.70;;
48651;SDS011;34442;52.362;-1.302;2023-01-31T06:52:24;1.90;;;0.98;;
48651;SDS011;34442;52.362;-1.302;2023-01-31T06:54:49;3.33;;;1.05;;
48651;SDS011;34442;52.362;-1.302;2023-01-31T06:57:15;2.10;;;0.98;;
48651;SDS011;34442;52.362;-1.302;2023-01-31T06:59:40;2.85;;;0.90;;
48651;SDS011;34442;52.362;-1.302;2023-01-31T07:02:06;1.02;;;0.70;;
48651;SDS011;34442;52.362;-1.302;2023-01-31T07:04:31;1.10;;;0.90;;
48651;SDS011;34442;52.362;-1.302;2023-01-31T07:06:57;0.93;;;0.70;;
48651;SDS011;34442;52.362;-1.302;2023-01-31T07:09:22;1.75;;;0.90;;
48651;SDS011;34442;52.362;-1.302;2023-01-31T07:11:48;1.27;;;0.70;;
48651;SDS011;34442;52.362;-1.302;2023-01-31T07:14:13;1.48;;;0.85;;
48651;SDS011;34442;52.362;-1.302;2023-01-31T07:16:39;3.05;;;1.23;;
48651;SDS011;34442;52.362;-1.302;2023-01-31T07:19:04;1.27;;;0.80;;
48651;SDS011;34442;52.362;-1.302;2023-01-31T07:21:30;1.77;;;0.93;;
48651;SDS011;34442;52.362;-1.302;2023-01-31T07:23:57;3.85;;;1.17;;
48651;SDS011;34442;52.362;-1.302;2023-01-31T07:26:23;2.05;;;0.85;;
48651;SDS011;34442;52.362;-1.302;2023-01-31T07:28:48;1.13;;;0.80;;
48651;SDS011;34442;52.362;-1.302;2023-01-31T07:31:14;0.85;;;0.73;;
48651;SDS011;34442;52.362;-1.302;2023-01-31T07:33:39;2.03;;;0.80;;
48651;SDS011;34442;52.362;-1.302;2023-01-31T07:36:05;1.00;;;0.70;;
48651;SDS011;34442;52.362;-1.302;2023-01-31T07:38:32;0.98;;;0.70;;
48651;SDS011;34442;52.362;-1.302;2023-01-31T07:40:59;1.48;;;0.88;;
48651;SDS011;34442;52.362;-1.302;2023-01-31T07:43:27;1.85;;;1.00;;
48651;SDS011;34442;52.362;-1.302;2023-01-31T07:45:53;1.52;;;0.75;;
48651;SDS011;34442;52.362;-1.302;2023-01-31T07:48:19;0.60;;;0.60;;
48651;SDS011;34442;52.362;-1.302;2023-01-31T07:50:50;1.02;;;0.70;;
48651;SDS011;34442;52.362;-1.302;2023-01-31T07:53:18;2.97;;;0.98;;
48651;SDS011;34442;52.362;-1.302;2023-01-31T07:55:44;2.00;;;1.00;;
48651;SDS011;34442;52.362;-1.302;2023-01-31T07:58:13;2.03;;;1.13;;
48651;SDS011;34442;52.362;-1.302;2023-01-31T08:00:40;1.30;;;0.80;;
48651;SDS011;34442;52.362;-1.302;2023-01-31T08:03:25;2.05;;;0.88;;
48651;SDS011;34442;52.362;-1.302;2023-01-31T08:06:02;2.75;;;1.00;;
48651;SDS011;34442;52.362;-1.302;2023-01-31T08:08:34;1.48;;;0.90;;
48651;SDS011;34442;52.362;-1.302;2023-01-31T08:11:00;1.58;;;0.90;;
48651;SDS011;34442;52.362;-1.302;2023-01-31T08:13:26;4.03;;;1.20;;
48651;SDS011;34442;52.362;-1.302;2023-01-31T08:15:52;2.30;;;0.90;;
48651;SDS011;34442;52.362;-1.302;2023-01-31T08:18:18;1.10;;;0.63;;
48651;SDS011;34442;52.362;-1.302;2023-01-31T08:20:43;1.30;;;1.08;;
48651;SDS011;34442;52.362;-1.302;2023-01-31T08:23:09;1.95;;;0.90;;
48651;SDS011;34442;52.362;-1.302;2023-01-31T08:25:35;1.20;;;0.80;;
48651;SDS011;34442;52.362;-1.302;2023-01-31T08:28:03;3.63;;;1.08;;
48651;SDS011;34442;52.362;-1.302;2023-01-31T08:30:28;1.80;;;1.00;;
48651;SDS011;34442;52.362;-1.302;2023-01-31T08:32:54;3.03;;;1.10;;
48651;SDS011;34442;52.362;-1.302;2023-01-31T08:35:20;3.92;;;0.88;;
48651;SDS011;34442;52.362;-1.302;2023-01-31T08:37:46;3.67;;;1.00;;
48651;SDS011;34442;52.362;-1.302;2023-01-31T08:40:11;5.60;;;1.55;;
48651;SDS011;34442;52.362;-1.302;2023-01-31T08:42:37;3.30;;;1.38;;
48651;SDS011;34442;52.362;-1.302;2023-01-31T08:45:02;1.90;;;0.80;;
48651;SDS011;34442;52.362;-1.302;2023-01-31T08:47:29;2.40;;;1.00;;
48651;SDS011;34442;52.362;-1.302;2023-01-31T08:49:54;0.93;;;0.80;;
48651;SDS011;34442;52.362;-1.302;2023-01-31T08:52:19;1.75;;;1.05;;
48651;SDS011;34442;52.362;-1.302;2023-01-31T08:54:45;1.67;;;0.90;;
48651;SDS011;34442;52.362;-1.302;2023-01-31T08:57:10;2.13;;;0.80;;
48651;SDS011;34442;52.362;-1.302;2023-01-31T08:59:35;1.27;;;0.90;;
48651;SDS011;34442;52.362;-1.302;2023-01-31T09:02:01;1.42;;;1.23;;
48651;SDS011;34442;52.362;-1.302;2023-01-31T09:04:26;1.13;;;0.88;;
48651;SDS011;34442;52.362;-1.302;2023-01-31T09:06:52;1.60;;;0.90;;
48651;SDS011;34442;52.362;-1.302;2023-01-31T09:09:22;2.03;;;0.80;;
48651;SDS011;34442;52.362;-1.302;2023-01-31T09:11:49;1.80;;;1.02;;
48651;SDS011;34442;52.362;-1.302;2023-01-31T09:14:15;0.82;;;0.60;;
48651;SDS011;34442;52.362;-1.302;2023-01-31T09:16:41;2.05;;;0.70;;
48651;SDS011;34442;52.362;-1.302;2023-01-31T09:19:06;1.45;;;0.80;;
48651;SDS011;34442;52.362;-1.302;2023-01-31T09:21:32;2.72;;;0.82;;
48651;SDS011;34442;52.362;-1.302;2023-01-31T09:23:59;2.53;;;1.00;;
48651;SDS011;34442;52.362;-1.302;2023-01-31T09:26:26;1.08;;;0.85;;
48651;SDS011;34442;52.362;-1.302;2023-01-31T09:28:52;0.70;;;0.68;;
48651;SDS011;34442;52.362;-1.302;2023-01-31T09:31:18;3.83;;;1.13;;
48651;SDS011;34442;52.362;-1.302;2023-01-31T09:33:45;2.17;;;0.98;;
48651;SDS011;34442;52.362;-1.302;2023-01-31T09:36:13;1.95;;;0.90;;
48651;SDS011;34442;52.362;-1.302;2023-01-31T09:38:42;1.98;;;0.70;;
48651;SDS011;34442;52.362;-1.302;2023-01-31T09:41:13;1.23;;;0.70;;
48651;SDS011;34442;52.362;-1.302;2023-01-31T09:43:43;0.65;;;0.60;;
48651;SDS011;34442;52.362;-1.302;2023-01-31T09:46:15;0.68;;;0.68;;
48651;SDS011;34442;52.362;-1.302;2023-01-31T09:48:44;1.75;;;0.80;;
48651;SDS011;34442;52.362;-1.302;2023-01-31T09:51:13;2.70;;;0.77;;
48651;SDS011;34442;52.362;-1.302;2023-01-31T09:53:41;3.45;;;1.20;;
48651;SDS011;34442;52.362;-1.302;2023-01-31T10:06:40;0.95;;;0.60;;
48651;SDS011;34442;52.362;-1.302;2023-01-31T10:09:19;2.22;;;1.10;;
48651;SDS011;34442;52.362;-1.302;2023-01-31T10:11:53;1.00;;;0.63;;
48651;SDS011;34442;52.362;-1.302;2023-01-31T10:17:10;2.27;;;1.00;;
48651;SDS011;34442;52.362;-1.302;2023-01-31T10:19:52;1.27;;;0.80;;
48651;SDS011;34442;52.362;-1.302;2023-01-31T10:22:24;0.98;;;0.70;;
48651;SDS011;34442;52.362;-1.302;2023-01-31T10:24:58;0.80;;;0.80;;
48651;SDS011;34442;52.362;-1.302;2023-01-31T10:29:58;0.80;;;0.73;;
48651;SDS011;34442;52.362;-1.302;2023-01-31T10:32:29;7.18;;;0.90;;
48651;SDS011;34442;52.362;-1.302;2023-01-31T10:35:02;1.27;;;0.70;;
48651;SDS011;34442;52.362;-1.302;2023-01-31T10:37:36;0.65;;;0.65;;
48651;SDS011;34442;52.362;-1.302;2023-01-31T10:42:44;0.98;;;0.63;;
48651;SDS011;34442;52.362;-1.302;2023-01-31T10:45:20;2.47;;;1.00;;
48651;SDS011;34442;52.362;-1.302;2023-01-31T10:47:51;1.10;;;0.70;;
48651;SDS011;34442;52.362;-1.302;2023-01-31T10:53:12;2.67;;;1.23;;
48651;SDS011;34442;52.362;-1.302;2023-01-31T10:58:23;4.88;;;1.60;;
48651;SDS011;34442;52.362;-1.302;2023-01-31T11:00:49;5.15;;;1.55;;
48651;SDS011;34442;52.362;-1.302;2023-01-31T11:03:15;2.67;;;1.05;;
48651;SDS011;34442;52.362;-1.302;2023-01-31T11:05:46;7.05;;;1.75;;
48651;SDS011;34442;52.362;-1.302;2023-01-31T11:08:34;3.83;;;1.45;;
48651;SDS011;34442;52.362;-1.302;2023-01-31T11:11:13;4.32;;;1.30;;
48651;SDS011;34442;52.362;-1.302;2023-01-31T11:16:24;5.72;;;1.60;;
48651;SDS011;34442;52.362;-1.302;2023-01-31T11:18:56;5.75;;;1.30;;
48651;SDS011;34442;52.362;-1.302;2023-01-31T11:21:28;7.97;;;1.77;;
48651;SDS011;34442;52.362;-1.302;2023-01-31T11:24:02;5.35;;;1.30;;
48651;SDS011;34442;52.362;-1.302;2023-01-31T11:26:33;6.07;;;1.65;;
48651;SDS011;34442;52.362;-1.302;2023-01-31T11:29:06;10.15;;;1.92;;
48651;SDS011;34442;52.362;-1.302;2023-01-31T11:31:37;3.83;;;1.50;;
48651;SDS011;34442;52.362;-1.302;2023-01-31T11:36:41;5.63;;;2.05;;
48651;SDS011;34442;52.362;-1.302;2023-01-31T11:41:57;6.45;;;1.58;;
48651;SDS011;34442;52.362;-1.302;2023-01-31T11:44:29;10.27;;;2.05;;
48651;SDS011;34442;52.362;-1.302;2023-01-31T11:46:55;8.48;;;1.98;;
48651;SDS011;34442;52.362;-1.302;2023-01-31T11:52:16;3.65;;;1.15;;
48651;SDS011;34442;52.362;-1.302;2023-01-31T11:54:47;3.63;;;1.20;;
48651;SDS011;34442;52.362;-1.302;2023-01-31T11:57:32;2.95;;;1.35;;
48651;SDS011;34442;52.362;-1.302;2023-01-31T12:00:04;5.05;;;1.60;;
48651;SDS011;34442;52.362;-1.302;2023-01-31T12:02:41;6.05;;;1.55;;
48651;SDS011;34442;52.362;-1.302;2023-01-31T12:05:08;4.75;;;1.40;;
48651;SDS011;34442;52.362;-1.302;2023-01-31T12:07:41;5.45;;;1.73;;
48651;SDS011;34442;52.362;-1.302;2023-01-31T12:13:13;6.32;;;1.42;;
48651;SDS011;34442;52.362;-1.302;2023-01-31T12:16:16;7.97;;;1.90;;
48651;SDS011;34442;52.362;-1.302;2023-01-31T12:19:23;8.80;;;2.15;;
48651;SDS011;34442;52.362;-1.302;2023-01-31T12:24:43;4.43;;;1.50;;
48651;SDS011;34442;52.362;-1.302;2023-01-31T12:49:39;8.18;;;2.13;;
48651;SDS011;34442;52.362;-1.302;2023-01-31T12:57:44;5.13;;;1.48;;
48651;SDS011;34442;52.362;-1.302;2023-01-31T13:03:23;6.22;;;1.58;;
48651;SDS011;34442;52.362;-1.302;2023-01-31T13:08:26;10.70;;;2.22;;
48651;SDS011;34442;52.362;-1.302;2023-01-31T13:10:56;5.60;;;1.95;;
48651;SDS011;34442;52.362;-1.302;2023-01-31T13:13:45;5.05;;;1.42;;
48651;SDS011;34442;52.362;-1.302;2023-01-31T13:18:54;5.82;;;1.60;;
48651;SDS011;34442;52.362;-1.302;2023-01-31T13:21:24;7.70;;;2.05;;
48651;SDS011;34442;52.362;-1.302;2023-01-31T13:23:58;5.93;;;1.55;;
48651;SDS011;34442;52.362;-1.302;2023-01-31T13:26:31;6.15;;;1.80;;
48651;SDS011;34442;52.362;-1.302;2023-01-31T13:29:03;8.95;;;1.90;;
48651;SDS011;34442;52.362;-1.302;2023-01-31T13:31:39;7.13;;;1.50;;
48651;SDS011;34442;52.362;-1.302;2023-01-31T13:37:17;7.60;;;2.72;;
48651;SDS011;34442;52.362;-1.302;2023-01-31T13:39:50;4.70;;;1.42;;
48651;SDS011;34442;52.362;-1.302;2023-01-31T13:42:21;7.40;;;1.67;;
48651;SDS011;34442;52.362;-1.302;2023-01-31T13:44:46;5.00;;;2.03;;
48651;SDS011;34442;52.362;-1.302;2023-01-31T13:52:22;3.88;;;1.45;;
48651;SDS011;34442;52.362;-1.302;2023-01-31T13:55:04;9.32;;;2.17;;
48651;SDS011;34442;52.362;-1.302;2023-01-31T13:57:45;6.15;;;1.48;;
48651;SDS011;34442;52.362;-1.302;2023-01-31T14:00:36;11.00;;;2.05;;
48651;SDS011;34442;52.362;-1.302;2023-01-31T14:03:15;8.98;;;1.98;;
48651;SDS011;34442;52.362;-1.302;2023-01-31T14:05:50;5.10;;;1.80;;
48651;SDS011;34442;52.362;-1.302;2023-01-31T14:11:03;5.10;;;1.48;;
48651;SDS011;34442;52.362;-1.302;2023-01-31T14:13:51;5.22;;;1.70;;
48651;SDS011;34442;52.362;-1.302;2023-01-31T14:16:45;9.02;;;2.28;;
48651;SDS011;34442;52.362;-1.302;2023-01-31T14:21:50;8.07;;;1.85;;
48651;SDS011;34442;52.362;-1.302;2023-01-31T14:32:32;5.70;;;1.58;;
48651;SDS011;34442;52.362;-1.302;2023-01-31T14:35:21;3.63;;;1.42;;
48651;SDS011;34442;52.362;-1.302;2023-01-31T14:40:32;7.07;;;1.60;;
48651;SDS011;34442;52.362;-1.302;2023-01-31T14:54:45;7.82;;;2.00;;
48651;SDS011;34442;52.362;-1.302;2023-01-31T14:57:38;5.72;;;1.55;;
48651;SDS011;34442;52.362;-1.302;2023-01-31T15:18:42;7.10;;;1.70;;
48651;SDS011;34442;52.362;-1.302;2023-01-31T15:21:09;7.65;;;1.75;;
48651;SDS011;34442;52.362;-1.302;2023-01-31T15:23:43;5.28;;;1.73;;
48651;SDS011;34442;52.362;-1.302;2023-01-31T15:26:08;5.47;;;2.25;;
48651;SDS011;34442;52.362;-1.302;2023-01-31T15:28:36;6.68;;;1.92;;
48651;SDS011;34442;52.362;-1.302;2023-01-31T15:31:05;8.07;;;1.90;;
48651;SDS011;34442;52.362;-1.302;2023-01-31T15:33:41;7.63;;;1.60;;
48651;SDS011;34442;52.362;-1.302;2023-01-31T15:36:17;3.90;;;1.45;;
48651;SDS011;34442;52.362;-1.302;2023-01-31T15:44:21;4.97;;;1.45;;
48651;SDS011;34442;52.362;-1.302;2023-01-31T15:46:49;3.50;;;1.30;;
48651;SDS011;34442;52.362;-1.302;2023-01-31T15:49:19;3.75;;;1.35;;
48651;SDS011;34442;52.362;-1.302;2023-01-31T15:52:09;6.15;;;1.60;;
48651;SDS011;34442;52.362;-1.302;2023-01-31T15:54:37;4.32;;;1.30;;
48651;SDS011;34442;52.362;-1.302;2023-01-31T15:57:08;7.60;;;1.92;;
48651;SDS011;34442;52.362;-1.302;2023-01-31T15:59:40;8.60;;;2.13;;
48651;SDS011;34442;52.362;-1.302;2023-01-31T16:02:17;5.15;;;1.60;;
48651;SDS011;34442;52.362;-1.302;2023-01-31T16:04:54;5.97;;;1.35;;
48651;SDS011;34442;52.362;-1.302;2023-01-31T16:07:20;5.15;;;1.48;;
48651;SDS011;34442;52.362;-1.302;2023-01-31T16:09:53;2.28;;;1.15;;
48651;SDS011;34442;52.362;-1.302;2023-01-31T16:12:25;3.55;;;1.27;;
48651;SDS011;34442;52.362;-1.302;2023-01-31T16:14:53;6.05;;;2.47;;
48651;SDS011;34442;52.362;-1.302;2023-01-31T16:17:24;6.13;;;1.45;;
48651;SDS011;34442;52.362;-1.302;2023-01-31T16:19:51;5.13;;;1.73;;
48651;SDS011;34442;52.362;-1.302;2023-01-31T16:22:25;5.50;;;1.63;;
48651;SDS011;34442;52.362;-1.302;2023-01-31T16:24:53;2.90;;;1.10;;
48651;SDS011;34442;52.362;-1.302;2023-01-31T16:27:20;10.13;;;2.70;;
48651;SDS011;34442;52.362;-1.302;2023-01-31T16:29:48;9.25;;;1.77;;
48651;SDS011;34442;52.362;-1.302;2023-01-31T16:35:02;8.13;;;1.92;;
48651;SDS011;34442;52.362;-1.302;2023-01-31T16:37:31;5.50;;;1.58;;
48651;SDS011;34442;52.362;-1.302;2023-01-31T16:40:03;3.00;;;1.00;;
48651;SDS011;34442;52.362;-1.302;2023-01-31T16:42:42;2.97;;;1.23;;
48651;SDS011;34442;52.362;-1.302;2023-01-31T16:45:27;7.78;;;1.67;;
48651;SDS011;34442;52.362;-1.302;2023-01-31T16:50:46;3.75;;;1.25;;
48651;SDS011;34442;52.362;-1.302;2023-01-31T16:55:40;3.22;;;1.23;;
48651;SDS011;34442;52.362;-1.302;2023-01-31T16:58:09;2.88;;;1.00;;
48651;SDS011;34442;52.362;-1.302;2023-01-31T17:00:39;3.45;;;1.23;;
48651;SDS011;34442;52.362;-1.302;2023-01-31T17:03:13;1.65;;;1.00;;
48651;SDS011;34442;52.362;-1.302;2023-01-31T17:05:43;4.32;;;1.33;;
48651;SDS011;34442;52.362;-1.302;2023-01-31T17:08:13;4.78;;;1.40;;
48651;SDS011;34442;52.362;-1.302;2023-01-31T17:10:42;6.28;;;1.40;;
48651;SDS011;34442;52.362;-1.302;2023-01-31T17:13:18;3.50;;;1.88;;
48651;SDS011;34442;52.362;-1.302;2023-01-31T17:15:46;3.00;;;1.30;;
48651;SDS011;34442;52.362;-1.302;2023-01-31T17:18:12;0.85;;;0.70;;
48651;SDS011;34442;52.362;-1.302;2023-01-31T17:20:45;7.95;;;1.67;;
48651;SDS011;34442;52.362;-1.302;2023-01-31T17:23:15;3.47;;;1.33;;
48651;SDS011;34442;52.362;-1.302;2023-01-31T17:25:41;4.57;;;1.63;;
48651;SDS011;34442;52.362;-1.302;2023-01-31T17:28:08;4.00;;;1.52;;
48651;SDS011;34442;52.362;-1.302;2023-01-31T17:30:36;4.72;;;1.33;;
48651;SDS011;34442;52.362;-1.302;2023-01-31T17:33:04;2.97;;;1.13;;
48651;SDS011;34442;52.362;-1.302;2023-01-31T17:35:36;3.80;;;1.40;;
48651;SDS011;34442;52.362;-1.302;2023-01-31T17:38:04;5.60;;;1.85;;
48651;SDS011;34442;52.362;-1.302;2023-01-31T17:40:30;4.85;;;1.73;;
48651;SDS011;34442;52.362;-1.302;2023-01-31T17:42:57;2.55;;;1.08;;
48651;SDS011;34442;52.362;-1.302;2023-01-31T17:45:24;3.35;;;1.20;;
48651;SDS011;34442;52.362;-1.302;2023-01-31T17:47:50;4.72;;;1.60;;
48651;SDS011;34442;52.362;-1.302;2023-01-31T17:50:17;4.88;;;1.42;;
48651;SDS011;34442;52.362;-1.302;2023-01-31T17:52:45;10.85;;;2.53;;
48651;SDS011;34442;52.362;-1.302;2023-01-31T17:55:11;3.58;;;1.40;;
48651;SDS011;34442;52.362;-1.302;2023-01-31T17:57:37;5.35;;;1.77;;